Список аэропортов
Фактическая погода:

21 августа, 06:50
Температура: +14°C (+13.8*)
Ветер: восточный 2 м/с
Давление: *760 мм
неб. облачность
180 м
неб. облачность
3000 м
разорв. обл.
6000 м
Время (МСК)Темп. СВетерВлажностьДавлениеОблачностьОсадки
03:00+13Ю, 1 м/с99%1013 гПаоблачно
04:00+13ЮВ, 1 м/с99%1013 гПаоблачно
05:00+13ЮВ, 1 м/с99%1013 гПаоблачно
06:00+13ЮВ, 1 м/с99%1014 гПаоблачносл. дождь
07:00+13Ю, 1 м/с99%1013 гПаоблачно
08:00+15Ю, 1 м/с98%1013 гПаоблачно
09:00+16ЮЗ, 2 м/с93%1013 гПаоблачно
10:00+17ЮЗ, 2 м/с84%1013 гПаоблачносл. дождь
11:00+18Ю, 2 м/с72%1013 гПаоблачно
12:00+18Ю, 2 м/с68%1012 гПаоблачно
13:00+19Ю, 3 м/с64%1013 гПаоблачно
14:00+19Ю, 3 м/с62%1013 гПаоблачно
15:00+19Ю, 3 м/с61%1012 гПаоблачно
16:00+19Ю, 3 м/с61%1012 гПаоблачно
17:00+19Ю, 3 м/с64%1012 гПаоблачно
18:00+18Ю, 3 м/с66%1012 гПаоблачно
19:00+18Ю, 3 м/с69%1012 гПаоблачно
20:00+17Ю, 2 м/с74%1012 гПаоблачно
21:00+15Ю, 1 м/с87%1012 гПамалооблачно
22:00+13ЮЗ, 1 м/с98%1013 гПаоблачно
23:00+12ЮЗ, 1 м/с99%1013 гПаоблачно
22 августа
00:00+11ЮЗ, 1 м/с100%1012 гПас прояснениями
01:00+11З, 1 м/с100%1013 гПаоблачно
02:00+10З, 1 м/с100%1013 гПаоблачно
03:00+9СЗ, 1 м/с100%1013 гПаоблачно
04:00+9СЗ, 1 м/с100%1012 гПаоблачно
05:00+9СЗ, 1 м/с100%1012 гПаоблачно
06:00+9СЗ, 1 м/с100%1013 гПаоблачно
07:00+10СЗ, 1 м/с100%1013 гПаоблачно
08:00+12С, 1 м/с98%1013 гПаоблачно
09:00+14С, 1 м/с94%1013 гПас прояснениями
10:00+16С, 1 м/с80%1013 гПамалооблачно
11:00+19СЗ, 1 м/с58%1012 гПаясно
12:00+20СЗ, 2 м/с53%1012 гПамалооблачно
13:00+20З, 2 м/с50%1012 гПас прояснениями
14:00+20СЗ, 2 м/с50%1012 гПаоблачно
15:00+21СЗ, 2 м/с49%1012 гПаоблачно
16:00+20СЗ, 2 м/с50%1012 гПаоблачно
17:00+20СЗ, 2 м/с50%1012 гПаоблачно
18:00+19С, 3 м/с67%1012 гПаоблачносл. дождь
19:00+16С, 2 м/с95%1012 гПаоблачнодождь
20:00+15С, 2 м/с94%1012 гПаоблачно
21:00+14С, 2 м/с90%1013 гПаоблачно
22:00+13С, 2 м/с92%1013 гПаоблачно
23:00+13С, 2 м/с92%1013 гПас прояснениями
23 августа
00:00+12С, 2 м/с87%1013 гПас прояснениями
01:00+12С, 2 м/с90%1013 гПамалооблачно
02:00+11С, 2 м/с92%1013 гПас прояснениями
03:00+10СЗ, 2 м/с95%1013 гПас прояснениями